Time;durP1;ratioP1;P1;durP2;ratioP2;P2;SDS_P1;SDS_P2;PMS_P1;PMS_P2;Temp;Humidity;BMP_temperature;BMP_pressure;BME280_temperature;BME280_humidity;BME280_pressure;Samples;Min_cycle;Max_cycle;Signal;HPM_P1;HPM_P2
2023/05/17 00:00:52;;;;;;;3.63;2.55;;;25.70;52.90;;;;;;5091450;28;20100;-67
2023/05/17 00:03:19;;;;;;;3.53;2.65;;;25.70;53.00;;;;;;5091630;28;20032;-67
2023/05/17 00:05:45;;;;;;;5.80;2.90;;;25.80;53.10;;;;;;5091047;28;20815;-67
2023/05/17 00:08:11;;;;;;;2.40;2.08;;;25.70;53.10;;;;;;5092689;28;20024;-67
2023/05/17 00:10:37;;;;;;;3.85;2.28;;;25.70;53.10;;;;;;5092348;28;20044;-67
2023/05/17 00:13:03;;;;;;;3.42;2.53;;;25.70;53.10;;;;;;5084133;28;20036;-67
2023/05/17 00:15:29;;;;;;;5.63;2.88;;;25.60;53.10;;;;;;5072438;28;20043;-66
2023/05/17 00:17:56;;;;;;;3.78;2.03;;;25.50;53.20;;;;;;5070880;28;20667;-67
2023/05/17 00:20:22;;;;;;;8.55;2.90;;;25.70;53.30;;;;;;5072177;28;20049;-67
2023/05/17 00:22:48;;;;;;;3.25;2.80;;;25.70;53.30;;;;;;5072468;28;20439;-67
2023/05/17 00:25:14;;;;;;;4.80;2.38;;;25.70;53.40;;;;;;5072008;28;20036;-67
2023/05/17 00:27:40;;;;;;;4.63;2.53;;;25.50;53.50;;;;;;5071776;28;20111;-67
2023/05/17 00:30:07;;;;;;;3.22;2.70;;;25.40;53.70;;;;;;5070811;28;20040;-67
2023/05/17 00:32:36;;;;;;;2.70;2.50;;;25.40;53.90;;;;;;5071837;28;20036;-67
2023/05/17 00:35:02;;;;;;;3.65;2.40;;;25.30;54.00;;;;;;5071749;28;20027;-67
2023/05/17 00:37:28;;;;;;;6.00;2.58;;;25.30;54.00;;;;;;5068927;28;20052;-66
2023/05/17 00:39:54;;;;;;;2.92;2.53;;;25.30;53.90;;;;;;5069226;28;20242;-67
2023/05/17 00:42:20;;;;;;;7.13;2.70;;;25.40;54.00;;;;;;5052475;28;20506;-67
2023/05/17 00:44:46;;;;;;;3.08;2.30;;;25.30;54.00;;;;;;5068555;28;20068;-67
2023/05/17 00:47:12;;;;;;;3.40;2.58;;;25.30;54.00;;;;;;5088761;28;20067;-67
2023/05/17 00:49:38;;;;;;;3.05;2.30;;;25.30;54.00;;;;;;5072586;28;20073;-67
2023/05/17 00:52:05;;;;;;;3.20;2.33;;;25.30;54.10;;;;;;5089400;28;20554;-67
2023/05/17 00:54:32;;;;;;;4.13;2.30;;;25.30;54.00;;;;;;5072381;28;20499;-67
2023/05/17 00:57:00;;;;;;;5.25;2.63;;;25.30;54.00;;;;;;5089196;28;20569;-67
2023/05/17 00:59:26;;;;;;;4.25;2.28;;;25.20;54.00;;;;;;5089194;28;20045;-67
2023/05/17 01:01:53;;;;;;;4.65;2.33;;;25.30;54.00;;;;;;5089341;28;20101;-67
2023/05/17 01:04:19;;;;;;;3.60;2.35;;;25.30;54.20;;;;;;5083329;28;20190;-67
2023/05/17 01:06:45;;;;;;;4.93;2.72;;;25.30;54.20;;;;;;5068989;28;20033;-67
2023/05/17 01:09:12;;;;;;;3.92;2.85;;;25.30;54.00;;;;;;5068697;28;20071;-67
2023/05/17 01:11:47;;;;;;;3.38;2.50;;;25.30;54.00;;;;;;5068932;28;20044;-67
2023/05/17 01:14:25;;;;;;;2.70;2.25;;;25.30;54.00;;;;;;5069263;28;20058;-67
2023/05/17 01:16:58;;;;;;;3.92;2.20;;;25.30;54.00;;;;;;5069993;28;20039;-67
2023/05/17 01:19:49;;;;;;;8.90;2.63;;;25.20;54.10;;;;;;5069815;28;20086;-67
2023/05/17 01:22:35;;;;;;;3.30;2.55;;;25.20;54.30;;;;;;5070102;28;20051;-67
2023/05/17 01:25:23;;;;;;;5.35;2.50;;;25.10;54.50;;;;;;5069925;28;20102;-67
2023/05/17 01:27:50;;;;;;;4.75;2.83;;;25.20;54.50;;;;;;5069779;28;20064;-67
2023/05/17 01:30:19;;;;;;;4.35;2.55;;;25.10;54.50;;;;;;5070103;28;20033;-67
2023/05/17 01:32:46;;;;;;;4.03;2.45;;;25.00;54.60;;;;;;5069893;28;20119;-67
2023/05/17 01:35:13;;;;;;;2.97;2.15;;;24.90;54.60;;;;;;5071471;28;20067;-67
2023/05/17 01:37:39;;;;;;;5.20;2.60;;;24.90;54.80;;;;;;5071221;28;20036;-67
2023/05/17 01:40:08;;;;;;;5.75;3.05;;;25.00;54.90;;;;;;5069512;28;20028;-67
2023/05/17 01:42:40;;;;;;;4.53;2.45;;;24.90;54.80;;;;;;5070859;28;20055;-67
2023/05/17 01:45:21;;;;;;;4.97;2.53;;;24.90;54.90;;;;;;5071269;28;20162;-67
2023/05/17 01:48:14;;;;;;;2.92;2.20;;;25.00;54.80;;;;;;5071017;28;20041;-67
2023/05/17 01:50:42;;;;;;;5.85;2.45;;;25.00;54.80;;;;;;5070868;28;20145;-67
2023/05/17 01:53:21;;;;;;;5.05;3.00;;;25.00;54.80;;;;;;5070689;28;20041;-67
2023/05/17 01:55:50;;;;;;;6.13;2.50;;;25.00;54.70;;;;;;5073291;28;20060;-67
2023/05/17 01:58:23;;;;;;;5.68;2.53;;;24.90;54.70;;;;;;5074903;28;20036;-67
2023/05/17 02:00:52;;;;;;;4.85;2.75;;;25.00;54.60;;;;;;5075026;28;20047;-67
2023/05/17 02:03:19;;;;;;;4.85;2.75;;;25.00;54.80;;;;;;5056718;28;20043;-67
2023/05/17 02:05:48;;;;;;;2.78;2.47;;;25.00;54.60;;;;;;5073223;28;20036;-67
2023/05/17 02:08:14;;;;;;;5.03;2.50;;;25.00;54.80;;;;;;5074668;28;20024;-67
2023/05/17 02:10:40;;;;;;;4.07;2.53;;;24.90;54.50;;;;;;5073205;28;20036;-67
2023/05/17 02:13:06;;;;;;;7.82;2.90;;;25.00;54.10;;;;;;5074675;28;20532;-67
2023/05/17 02:15:32;;;;;;;4.03;2.40;;;24.90;54.60;;;;;;5074387;28;20025;-67
2023/05/17 02:17:58;;;;;;;4.38;2.92;;;24.70;54.90;;;;;;5072837;28;20403;-67
2023/05/17 02:20:24;;;;;;;3.17;2.65;;;24.90;54.90;;;;;;5075081;28;20049;-67
2023/05/17 02:22:51;;;;;;;6.97;3.35;;;24.70;55.00;;;;;;5074362;28;20035;-67
2023/05/17 02:25:18;;;;;;;4.57;2.50;;;24.70;54.80;;;;;;5072993;28;20411;-67
2023/05/17 02:27:44;;;;;;;5.15;3.05;;;24.80;54.80;;;;;;5073080;28;20041;-67
2023/05/17 02:30:12;;;;;;;4.68;2.58;;;24.70;54.90;;;;;;5071499;28;20048;-67
2023/05/17 02:32:38;;;;;;;6.03;2.72;;;24.70;55.10;;;;;;5071646;28;20065;-67
2023/05/17 02:35:06;;;;;;;3.17;2.67;;;24.60;55.10;;;;;;5071665;28;20049;-67
2023/05/17 02:37:32;;;;;;;5.78;3.00;;;24.70;55.20;;;;;;5071601;28;20033;-67
2023/05/17 02:39:58;;;;;;;5.90;2.88;;;24.70;55.00;;;;;;5055126;28;20129;-68
2023/05/17 02:42:24;;;;;;;7.10;3.00;;;24.80;54.80;;;;;;5055069;28;20516;-67
2023/05/17 02:44:51;;;;;;;7.07;3.08;;;24.80;54.80;;;;;;5071474;28;20060;-67
2023/05/17 02:47:19;;;;;;;3.92;3.00;;;24.70;54.80;;;;;;5071500;28;20036;-67
2023/05/17 02:49:46;;;;;;;4.85;2.78;;;24.80;54.80;;;;;;5054928;28;20040;-67
2023/05/17 02:52:14;;;;;;;6.72;3.05;;;24.80;54.80;;;;;;5071330;28;20051;-66
2023/05/17 02:54:42;;;;;;;3.35;2.55;;;24.80;54.80;;;;;;5063193;28;20116;-67
2023/05/17 02:57:09;;;;;;;5.85;2.90;;;24.80;54.80;;;;;;5091378;28;20036;-67
2023/05/17 02:59:36;;;;;;;7.45;2.72;;;24.80;53.20;;;;;;5074737;28;20043;-67
2023/05/17 03:02:02;;;;;;;2.47;2.28;;;24.70;54.70;;;;;;5086190;28;20056;-67
2023/05/17 03:04:28;;;;;;;2.45;1.80;;;24.90;54.80;;;;;;5092381;28;20440;-67
2023/05/17 03:06:54;;;;;;;5.93;2.30;;;24.90;54.80;;;;;;5091591;28;20114;-67
2023/05/17 03:09:21;;;;;;;3.25;2.45;;;24.80;54.60;;;;;;5092693;28;20127;-67
2023/05/17 03:11:49;;;;;;;6.00;2.30;;;24.80;54.40;;;;;;5092478;28;20522;-67
2023/05/17 03:14:23;;;;;;;3.83;2.15;;;24.80;54.00;;;;;;5092185;28;20437;-67
2023/05/17 03:16:49;;;;;;;3.42;2.15;;;24.90;54.40;;;;;;5092422;28;20032;-67
2023/05/17 03:19:16;;;;;;;2.83;2.50;;;24.70;54.30;;;;;;5075363;28;20391;-67
2023/05/17 03:21:43;;;;;;;4.97;2.08;;;24.80;54.50;;;;;;5092419;28;20036;-67
2023/05/17 03:24:10;;;;;;;3.22;1.95;;;24.90;54.50;;;;;;5092122;28;20576;-67
2023/05/17 03:26:38;;;;;;;3.10;2.35;;;24.80;54.30;;;;;;5092157;28;20495;-67
2023/05/17 03:29:06;;;;;;;9.15;1.98;;;24.80;54.30;;;;;;5092016;28;20028;-67
2023/05/17 03:31:32;;;;;;;4.22;2.03;;;24.80;54.20;;;;;;5093511;28;20040;-67
2023/05/17 03:33:58;;;;;;;5.47;2.67;;;24.90;54.30;;;;;;5092175;28;20024;-67
2023/05/17 03:36:25;;;;;;;3.17;2.00;;;24.90;54.30;;;;;;5093112;28;20040;-66
2023/05/17 03:38:51;;;;;;;5.25;2.47;;;24.80;54.20;;;;;;5075083;28;20032;-67
2023/05/17 03:41:17;;;;;;;3.70;1.95;;;24.90;54.00;;;;;;5091648;28;20036;-67
2023/05/17 03:43:43;;;;;;;3.03;2.47;;;25.00;54.00;;;;;;5073530;28;20417;-67
2023/05/17 03:46:11;;;;;;;3.63;2.08;;;25.00;54.30;;;;;;5073711;28;20044;-67
2023/05/17 03:48:37;;;;;;;6.35;2.45;;;25.00;54.30;;;;;;5090797;28;20123;-67
2023/05/17 03:51:04;;;;;;;3.83;2.40;;;25.10;54.20;;;;;;5073685;28;20054;-67
2023/05/17 03:53:30;;;;;;;8.95;2.00;;;25.00;52.90;;;;;;5090609;28;20163;-67
2023/05/17 03:55:56;;;;;;;2.90;2.28;;;25.00;54.30;;;;;;5073324;28;20117;-72
2023/05/17 03:58:22;;;;;;;2.78;2.38;;;25.00;54.10;;;;;;5053221;28;20059;-72
2023/05/17 04:00:48;;;;;;;2.83;1.80;;;25.00;54.00;;;;;;5053448;28;20048;-71
2023/05/17 04:03:17;;;;;;;3.90;1.65;;;24.90;53.70;;;;;;5053423;28;20062;-71
2023/05/17 04:05:45;;;;;;;1.85;1.08;;;24.90;53.50;;;;;;5069959;28;20039;-72
2023/05/17 04:08:12;;;;;;;3.50;1.50;;;25.00;52.20;;;;;;5052930;28;20056;-71
2023/05/17 04:10:40;;;;;;;3.83;3.35;;;24.90;50.50;;;;;;5029679;28;20053;-66
2023/05/17 04:13:08;;;;;;;4.55;3.20;;;24.80;49.20;;;;;;5030079;28;20051;-66
2023/05/17 04:15:35;;;;;;;7.50;3.60;;;25.00;48.60;;;;;;5013368;28;20049;-66
2023/05/17 04:18:03;;;;;;;7.85;4.32;;;24.90;48.00;;;;;;5013277;28;20397;-66
2023/05/17 04:20:29;;;;;;;3.67;3.20;;;24.90;48.20;;;;;;5013448;28;20065;-66
2023/05/17 04:22:55;;;;;;;7.63;3.20;;;25.00;47.50;;;;;;5029439;28;20045;-66
2023/05/17 04:25:23;;;;;;;8.35;3.50;;;25.00;48.60;;;;;;5013263;28;20052;-66
2023/05/17 04:27:50;;;;;;;4.90;3.92;;;25.00;49.20;;;;;;5013296;28;20138;-66
2023/05/17 04:30:17;;;;;;;11.77;5.15;;;25.00;49.00;;;;;;5025334;28;20400;-67
2023/05/17 04:32:44;;;;;;;5.10;4.15;;;24.90;49.00;;;;;;5032885;28;20447;-67
2023/05/17 04:35:11;;;;;;;6.05;4.65;;;25.00;47.70;;;;;;5032540;28;20508;-67
2023/05/17 04:37:39;;;;;;;13.38;11.10;;;25.00;49.10;;;;;;5049354;28;20045;-66
2023/05/17 04:40:13;;;;;;;4.78;3.83;;;25.10;48.50;;;;;;5049355;28;20170;-66
2023/05/17 04:42:40;;;;;;;10.48;5.00;;;25.00;48.60;;;;;;5051340;28;20068;-66
2023/05/17 04:45:08;;;;;;;5.45;4.18;;;25.00;48.40;;;;;;5052867;28;20042;-66
2023/05/17 04:47:34;;;;;;;6.60;4.32;;;25.00;47.20;;;;;;5052643;28;20472;-68
2023/05/17 04:50:00;;;;;;;5.20;3.78;;;25.00;47.80;;;;;;5052991;28;20050;-66
2023/05/17 04:52:26;;;;;;;4.07;2.85;;;25.00;48.00;;;;;;5073164;28;20499;-65
2023/05/17 04:54:52;;;;;;;8.93;3.50;;;25.00;47.90;;;;;;5071847;28;20544;-65
2023/05/17 04:57:20;;;;;;;8.40;3.53;;;25.00;47.70;;;;;;5089228;28;20361;-65
2023/05/17 05:00:08;;;;;;;7.60;4.00;;;25.10;48.20;;;;;;5089170;28;20036;-65
2023/05/17 05:02:35;;;;;;;8.05;3.90;;;24.90;52.30;;;;;;5072209;28;20044;-65
2023/05/17 05:05:03;;;;;;;7.82;4.00;;;24.90;54.50;;;;;;5072153;28;20040;-65
2023/05/17 05:07:30;;;;;;;5.78;3.40;;;24.90;54.20;;;;;;5088629;28;20036;-65
2023/05/17 05:09:56;;;;;;;7.25;3.28;;;25.00;54.70;;;;;;5071476;28;20039;-66
2023/05/17 05:12:24;;;;;;;5.18;3.67;;;24.90;55.60;;;;;;5053236;28;20136;-67
2023/05/17 05:14:50;;;;;;;8.40;3.53;;;25.00;54.10;;;;;;5071893;28;20380;-66
2023/05/17 05:17:16;;;;;;;5.35;3.67;;;24.90;55.00;;;;;;5088750;28;20044;-67
2023/05/17 05:19:42;;;;;;;5.22;3.30;;;24.80;55.20;;;;;;5085710;28;20100;-67
2023/05/17 05:22:08;;;;;;;4.10;3.28;;;24.80;54.50;;;;;;5075513;28;20617;-67
2023/05/17 05:24:36;;;;;;;8.35;3.40;;;24.90;54.80;;;;;;5011821;28;20049;-68
2023/05/17 05:27:02;;;;;;;5.93;3.78;;;24.80;55.10;;;;;;5026849;28;20490;-67
2023/05/17 05:29:29;;;;;;;7.13;3.22;;;25.00;54.40;;;;;;4995678;28;20151;-67
2023/05/17 05:31:55;;;;;;;5.97;3.40;;;25.00;52.10;;;;;;5012016;28;20069;-67
2023/05/17 05:34:22;;;;;;;7.38;3.50;;;25.00;53.50;;;;;;4992276;28;20046;-67
2023/05/17 05:36:48;;;;;;;3.90;2.63;;;25.00;53.00;;;;;;5004485;28;20041;-67
2023/05/17 05:39:15;;;;;;;4.90;3.45;;;25.00;54.20;;;;;;5008509;28;20108;-67
2023/05/17 05:41:42;;;;;;;12.63;3.72;;;24.90;53.90;;;;;;5008711;28;20046;-68
2023/05/17 05:44:08;;;;;;;5.38;3.63;;;25.00;52.80;;;;;;5008459;28;20100;-68
2023/05/17 05:46:34;;;;;;;9.52;3.78;;;25.00;54.30;;;;;;5008540;28;20493;-67
2023/05/17 05:49:02;;;;;;;7.72;3.63;;;25.00;54.20;;;;;;4988461;28;20052;-68
2023/05/17 05:51:30;;;;;;;4.43;3.63;;;25.00;53.30;;;;;;4985316;28;20112;-69
2023/05/17 05:53:57;;;;;;;14.93;3.35;;;25.10;52.30;;;;;;4969216;28;20058;-66
2023/05/17 05:56:24;;;;;;;7.38;3.60;;;25.10;52.40;;;;;;5034975;28;20087;-65
2023/05/17 05:58:51;;;;;;;5.88;3.17;;;25.10;53.90;;;;;;5031461;28;20468;-67
2023/05/17 06:01:17;;;;;;;10.25;4.13;;;25.00;54.50;;;;;;5048321;28;20033;-66
2023/05/17 06:03:43;;;;;;;8.10;3.80;;;25.00;54.60;;;;;;5048041;28;20095;-66
2023/05/17 06:06:10;;;;;;;6.43;3.63;;;25.00;55.50;;;;;;5048204;28;20149;-64
2023/05/17 06:08:36;;;;;;;9.73;3.85;;;25.10;55.30;;;;;;5031844;28;20609;-70
2023/05/17 06:11:02;;;;;;;10.35;3.60;;;25.30;59.20;;;;;;5051923;28;20044;-65
2023/05/17 06:13:28;;;;;;;6.07;3.58;;;25.60;59.60;;;;;;5068076;28;20029;-64
2023/05/17 06:15:54;;;;;;;6.57;2.92;;;25.80;60.60;;;;;;5068310;28;20483;-66
2023/05/17 06:18:20;;;;;;;3.83;3.35;;;25.90;56.20;;;;;;5034954;28;20579;-67
2023/05/17 06:20:46;;;;;;;9.63;2.88;;;25.70;54.50;;;;;;5086891;28;20071;-65
2023/05/17 06:23:14;;;;;;;5.85;2.80;;;25.70;54.20;;;;;;5088016;28;20446;-66
2023/05/17 06:25:40;;;;;;;11.40;3.67;;;25.70;54.80;;;;;;5088392;28;20462;-67
2023/05/17 06:28:08;;;;;;;9.18;3.00;;;25.60;54.00;;;;;;5088360;28;20044;-64
2023/05/17 06:30:34;;;;;;;5.15;2.67;;;25.50;53.70;;;;;;5088137;28;20139;-66
2023/05/17 06:33:00;;;;;;;5.28;2.65;;;25.40;53.30;;;;;;5088212;28;20044;-66
2023/05/17 06:35:26;;;;;;;4.70;2.65;;;25.60;52.60;;;;;;5086148;28;20055;-67
2023/05/17 06:37:52;;;;;;;4.40;2.42;;;25.70;52.00;;;;;;5071147;28;20554;-66
2023/05/17 06:40:18;;;;;;;3.65;2.92;;;25.70;52.30;;;;;;5088058;28;20481;-66
2023/05/17 06:42:44;;;;;;;8.07;2.70;;;25.60;51.50;;;;;;5089862;28;20040;-67
2023/05/17 06:45:11;;;;;;;8.05;3.28;;;25.60;52.40;;;;;;5074903;28;20040;-67
2023/05/17 06:47:37;;;;;;;4.00;3.15;;;25.70;51.20;;;;;;5091770;28;20042;-66
2023/05/17 06:50:03;;;;;;;6.80;3.05;;;25.60;51.10;;;;;;5091133;28;20063;-66
2023/05/17 06:52:29;;;;;;;5.13;2.85;;;25.50;51.60;;;;;;5074103;28;20767;-65
2023/05/17 06:54:55;;;;;;;6.55;3.60;;;25.50;50.80;;;;;;5073404;28;20047;-65
2023/05/17 06:57:23;;;;;;;5.95;3.72;;;25.50;50.60;;;;;;5083236;28;20028;-64
2023/05/17 06:59:49;;;;;;;9.60;3.60;;;25.60;50.30;;;;;;5093947;28;20097;-65
2023/05/17 07:02:15;;;;;;;12.63;4.28;;;25.50;50.50;;;;;;5093706;28;20036;-64
2023/05/17 07:04:41;;;;;;;5.28;2.92;;;25.70;50.30;;;;;;5092593;28;20024;-64
2023/05/17 07:07:07;;;;;;;5.32;3.30;;;25.60;50.20;;;;;;5093914;28;20475;-64
2023/05/17 07:09:32;;;;;;;6.18;3.80;;;25.50;49.90;;;;;;5092318;28;20040;-63
2023/05/17 07:11:58;;;;;;;7.50;3.05;;;25.60;50.10;;;;;;5093506;28;20062;-64
2023/05/17 07:14:24;;;;;;;7.40;3.10;;;25.60;50.00;;;;;;5093723;28;20039;-63
2023/05/17 07:16:50;;;;;;;4.15;2.75;;;25.60;50.30;;;;;;5093986;28;20085;-64
2023/05/17 07:19:16;;;;;;;5.90;3.38;;;25.50;52.40;;;;;;5093610;28;20032;-64
2023/05/17 07:21:42;;;;;;;6.22;3.88;;;25.60;52.40;;;;;;5093562;28;20040;-64
2023/05/17 07:24:08;;;;;;;6.68;3.55;;;25.50;50.80;;;;;;5093596;28;20032;-65
2023/05/17 07:26:34;;;;;;;3.47;3.00;;;25.40;51.20;;;;;;5071769;28;20040;-64
2023/05/17 07:29:00;;;;;;;4.53;2.90;;;25.40;50.70;;;;;;5073197;28;20033;-63
2023/05/17 07:31:26;;;;;;;6.65;3.20;;;25.50;50.30;;;;;;5073359;28;20043;-64
2023/05/17 07:33:52;;;;;;;6.38;4.07;;;25.50;50.30;;;;;;5073319;28;20043;-63
2023/05/17 07:36:18;;;;;;;10.07;4.22;;;25.50;50.80;;;;;;5073192;28;20119;-64
2023/05/17 07:38:44;;;;;;;6.43;2.92;;;25.40;51.40;;;;;;5072612;28;20036;-64
2023/05/17 07:41:15;;;;;;;7.88;2.67;;;25.40;51.20;;;;;;5071487;28;20028;-65
2023/05/17 07:43:41;;;;;;;3.13;2.63;;;25.30;51.00;;;;;;5070571;28;20051;-65
2023/05/17 07:46:07;;;;;;;6.15;2.90;;;25.30;51.00;;;;;;5072763;28;20024;-65
2023/05/17 07:48:33;;;;;;;6.38;2.90;;;25.40;50.80;;;;;;5072489;28;20037;-66
2023/05/17 07:50:59;;;;;;;9.07;3.58;;;25.40;51.30;;;;;;5072415;28;20033;-66
2023/05/17 07:53:25;;;;;;;7.07;3.20;;;25.30;51.40;;;;;;5072099;28;20037;-66
2023/05/17 07:55:51;;;;;;;3.65;3.15;;;25.40;51.50;;;;;;5072651;28;20032;-66
2023/05/17 07:58:17;;;;;;;4.30;3.05;;;25.30;51.50;;;;;;5071365;28;20647;-66
2023/05/17 08:00:43;;;;;;;4.68;2.83;;;25.50;51.40;;;;;;5071299;28;20485;-66
2023/05/17 08:03:09;;;;;;;5.00;3.25;;;25.40;51.30;;;;;;5072738;28;20071;-66
2023/05/17 08:05:35;;;;;;;7.43;2.90;;;25.50;51.20;;;;;;5072481;28;20064;-65
2023/05/17 08:08:01;;;;;;;4.63;2.88;;;25.40;51.10;;;;;;5072632;28;20032;-65
2023/05/17 08:10:27;;;;;;;6.15;4.03;;;25.30;51.00;;;;;;5072097;28;20131;-66
2023/05/17 08:12:54;;;;;;;5.65;3.28;;;25.50;50.80;;;;;;5071461;28;20032;-67
2023/05/17 08:15:21;;;;;;;5.35;3.15;;;25.50;50.10;;;;;;5072456;28;20681;-67
2023/05/17 08:17:47;;;;;;;6.90;3.22;;;25.50;50.50;;;;;;5072465;28;20179;-65
2023/05/17 08:20:13;;;;;;;13.35;4.45;;;25.70;52.00;;;;;;5070661;28;20135;-66
2023/05/17 08:22:39;;;;;;;6.15;3.10;;;25.90;51.30;;;;;;5070972;28;20472;-65
2023/05/17 08:25:05;;;;;;;2.67;2.30;;;25.90;53.00;;;;;;5072368;28;20097;-66
2023/05/17 08:27:31;;;;;;;5.85;2.45;;;26.00;53.30;;;;;;5082052;28;20482;-67
2023/05/17 08:29:58;;;;;;;3.88;3.28;;;26.10;52.50;;;;;;5091196;28;20043;-67
2023/05/17 08:32:28;;;;;;;5.90;3.83;;;26.00;52.10;;;;;;5074938;28;20043;-68
2023/05/17 08:34:54;;;;;;;7.30;2.33;;;25.90;51.60;;;;;;5091781;28;20452;-67
2023/05/17 08:37:20;;;;;;;8.15;3.10;;;25.80;51.60;;;;;;5092202;28;20032;-67
2023/05/17 08:39:48;;;;;;;2.90;2.45;;;25.80;51.50;;;;;;5092277;28;20039;-67
2023/05/17 08:42:17;;;;;;;4.75;2.40;;;25.90;50.80;;;;;;5092404;28;20031;-67
2023/05/17 08:44:43;;;;;;;3.88;2.22;;;25.90;50.50;;;;;;5092218;28;20468;-67
2023/05/17 08:47:10;;;;;;;10.63;2.58;;;26.00;51.60;;;;;;5088993;28;20072;-66
2023/05/17 08:49:38;;;;;;;2.30;2.10;;;26.00;51.70;;;;;;5091801;28;20118;-66
2023/05/17 08:52:09;;;;;;;6.47;2.72;;;26.00;50.50;;;;;;5092148;28;20028;-66
2023/05/17 08:54:36;;;;;;;5.55;2.53;;;26.00;51.40;;;;;;5092147;28;20109;-66
2023/05/17 08:57:05;;;;;;;92.90;44.83;;;26.00;50.40;;;;;;5090481;28;20035;-66
2023/05/17 08:59:33;;;;;;;11.10;7.50;;;26.00;48.00;;;;;;5091877;28;20044;-66
2023/05/17 09:02:00;;;;;;;4.22;2.85;;;26.30;50.00;;;;;;5091924;28;20036;-66
2023/05/17 09:04:29;;;;;;;2.75;2.55;;;26.30;50.50;;;;;;5090929;28;20070;-65
2023/05/17 09:06:55;;;;;;;3.60;2.95;;;26.10;50.40;;;;;;5090475;28;20372;-66
2023/05/17 09:09:21;;;;;;;7.28;3.30;;;26.10;51.10;;;;;;5088767;28;20039;-67
2023/05/17 09:11:47;;;;;;;7.32;4.38;;;26.10;51.30;;;;;;5094117;28;20071;-67
2023/05/17 09:14:17;;;;;;;4.97;2.95;;;26.10;51.20;;;;;;5094480;28;20459;-67
2023/05/17 09:16:43;;;;;;;6.68;3.72;;;26.10;51.00;;;;;;5099918;28;20328;-65
2023/05/17 09:19:15;;;;;;;7.07;2.72;;;26.10;51.80;;;;;;5111572;28;20538;-65
2023/05/17 09:21:45;;;;;;;4.43;3.22;;;26.10;51.70;;;;;;5111759;28;20039;-66
2023/05/17 09:24:11;;;;;;;4.40;2.53;;;26.10;51.60;;;;;;5110134;28;20036;-66
2023/05/17 09:26:43;;;;;;;8.50;2.97;;;26.10;52.00;;;;;;5107304;28;20028;-65
2023/05/17 09:29:13;;;;;;;6.30;2.90;;;26.00;52.00;;;;;;5091061;28;20052;-65
2023/05/17 09:31:40;;;;;;;12.55;3.53;;;26.10;52.00;;;;;;5089591;28;20055;-65
2023/05/17 09:34:06;;;;;;;6.47;2.92;;;26.00;52.20;;;;;;5091132;28;20124;-67
2023/05/17 09:36:35;;;;;;;4.80;3.30;;;26.00;52.10;;;;;;5089664;28;20047;-66
2023/05/17 09:39:04;;;;;;;6.38;4.05;;;26.00;52.40;;;;;;5090853;28;20419;-66
2023/05/17 09:41:42;;;;;;;7.40;3.63;;;26.00;50.80;;;;;;5090061;28;20036;-66
2023/05/17 09:44:09;;;;;;;8.20;3.85;;;26.00;50.30;;;;;;5089659;28;20368;-66
2023/05/17 09:46:37;;;;;;;8.18;4.38;;;26.10;50.00;;;;;;5090888;28;20021;-66
2023/05/17 09:49:04;;;;;;;8.60;3.60;;;26.10;50.10;;;;;;5089615;28;20067;-68
2023/05/17 09:51:34;;;;;;;8.20;3.42;;;26.10;50.60;;;;;;5085796;28;20082;-66
2023/05/17 09:54:00;;;;;;;9.00;3.70;;;26.10;51.20;;;;;;5069245;28;20486;-66
2023/05/17 09:56:30;;;;;;;3.80;2.78;;;26.20;50.00;;;;;;5071062;28;20039;-66
2023/05/17 09:59:00;;;;;;;7.15;2.85;;;26.10;51.10;;;;;;5070591;28;20093;-67
2023/05/17 10:01:28;;;;;;;5.80;2.70;;;26.20;54.80;;;;;;5072772;28;20111;-66
2023/05/17 10:03:57;;;;;;;3.30;2.38;;;26.20;53.40;;;;;;5108413;28;20494;-66
2023/05/17 10:06:26;;;;;;;4.90;2.47;;;26.10;53.10;;;;;;5110209;28;20047;-67
2023/05/17 10:08:55;;;;;;;10.80;5.45;;;26.00;52.80;;;;;;5110762;28;20421;-67
2023/05/17 10:11:32;;;;;;;7.93;3.78;;;26.10;52.60;;;;;;5111029;28;20036;-68
2023/05/17 10:14:17;;;;;;;6.40;3.47;;;26.40;51.40;;;;;;5111231;28;20042;-69
2023/05/17 10:16:44;;;;;;;4.75;3.20;;;26.30;49.20;;;;;;5113115;28;20083;-66
2023/05/17 10:19:11;;;;;;;8.35;3.15;;;26.30;49.70;;;;;;5114589;28;20027;-67
2023/05/17 10:21:38;;;;;;;4.00;2.75;;;26.20;48.50;;;;;;5115108;28;20118;-67
2023/05/17 10:24:05;;;;;;;9.45;3.60;;;26.30;47.90;;;;;;5113911;28;20126;-67
2023/05/17 10:26:32;;;;;;;4.28;3.13;;;26.20;50.80;;;;;;5107908;28;20770;-67
2023/05/17 10:29:01;;;;;;;4.60;3.22;;;26.30;54.30;;;;;;5094553;28;20040;-68
2023/05/17 10:31:33;;;;;;;5.00;2.60;;;26.60;51.10;;;;;;5094433;28;20040;-67
2023/05/17 10:34:05;;;;;;;4.50;3.17;;;26.30;58.50;;;;;;5094347;28;20036;-67
2023/05/17 10:36:32;;;;;;;3.20;2.05;;;26.50;53.10;;;;;;5093044;28;20036;-67
2023/05/17 10:38:59;;;;;;;4.72;3.35;;;26.20;52.80;;;;;;5094395;28;20028;-67
2023/05/17 10:41:36;;;;;;;3.70;2.92;;;26.40;52.60;;;;;;5112084;28;20046;-68
2023/05/17 10:44:06;;;;;;;6.00;3.00;;;26.20;52.70;;;;;;5095232;28;20039;-67
2023/05/17 10:46:33;;;;;;;2.90;2.20;;;26.20;54.30;;;;;;5111746;28;20039;-67
2023/05/17 10:49:00;;;;;;;5.70;2.53;;;26.30;53.90;;;;;;5111935;28;20406;-67
2023/05/17 10:51:31;;;;;;;7.15;2.65;;;26.30;53.00;;;;;;5112032;28;20113;-67
2023/05/17 10:54:12;;;;;;;5.32;2.03;;;26.40;52.70;;;;;;5110058;28;20028;-67
2023/05/17 10:56:41;;;;;;;2.92;2.05;;;26.20;52.80;;;;;;5074960;28;20040;-67
2023/05/17 10:59:25;;;;;;;5.93;2.60;;;26.20;52.80;;;;;;5091536;28;20032;-68
2023/05/17 11:01:56;;;;;;;5.47;3.05;;;26.20;52.50;;;;;;5091687;28;20054;-67
2023/05/17 11:04:24;;;;;;;6.55;2.50;;;26.20;52.80;;;;;;5091356;28;20035;-67
2023/05/17 11:06:52;;;;;;;7.63;3.72;;;26.20;52.80;;;;;;5091453;28;20048;-68
2023/05/17 11:09:22;;;;;;;6.45;3.47;;;26.20;52.90;;;;;;5091517;28;20501;-68
2023/05/17 11:12:04;;;;;;;6.55;3.60;;;26.20;52.50;;;;;;5087081;28;20110;-67
2023/05/17 11:14:53;;;;;;;4.07;2.17;;;26.20;51.80;;;;;;5073493;28;20557;-66
2023/05/17 11:17:22;;;;;;;3.78;2.70;;;26.20;51.50;;;;;;5054058;28;20506;-67
2023/05/17 11:20:11;;;;;;;6.70;2.17;;;26.20;52.90;;;;;;5070376;28;20057;-67
2023/05/17 11:22:54;;;;;;;2.00;1.90;;;26.20;52.80;;;;;;5070649;28;20135;-67
2023/05/17 11:25:20;;;;;;;3.90;1.65;;;26.10;53.00;;;;;;5054153;28;20032;-68
2023/05/17 11:27:48;;;;;;;3.40;1.90;;;26.20;53.30;;;;;;5070309;28;20098;-67
2023/05/17 11:30:28;;;;;;;2.03;1.38;;;26.10;53.30;;;;;;5070648;28;20677;-68
2023/05/17 11:32:59;;;;;;;4.28;2.20;;;26.10;53.20;;;;;;5070635;28;20052;-67
2023/05/17 11:35:27;;;;;;;2.17;2.00;;;26.20;53.10;;;;;;5070893;28;20816;-68
2023/05/17 11:38:21;;;;;;;3.83;2.70;;;26.20;53.00;;;;;;5070988;28;20528;-70
2023/05/17 11:40:55;;;;;;;6.55;2.45;;;26.20;51.90;;;;;;5070673;28;20085;-71
2023/05/17 11:43:22;;;;;;;5.47;3.45;;;26.00;53.70;;;;;;5070491;28;20063;-69
2023/05/17 11:45:56;;;;;;;4.75;1.98;;;26.10;52.80;;;;;;5070220;28;20488;-69
2023/05/17 11:48:24;;;;;;;2.75;2.40;;;26.10;53.00;;;;;;5071475;28;20110;-70
2023/05/17 11:50:57;;;;;;;3.08;2.38;;;26.00;52.90;;;;;;5072699;28;20040;-71
2023/05/17 11:53:24;;;;;;;4.15;2.30;;;26.10;52.80;;;;;;5072600;28;20504;-70
2023/05/17 11:55:51;;;;;;;8.60;2.92;;;26.10;52.50;;;;;;5071405;28;20127;-67
2023/05/17 11:58:28;;;;;;;3.80;2.47;;;26.00;52.50;;;;;;5072858;28;20396;-67
2023/05/17 12:00:57;;;;;;;3.90;2.55;;;26.00;51.60;;;;;;5072572;28;20048;-68
2023/05/17 12:03:31;;;;;;;4.10;2.08;;;26.00;52.50;;;;;;5072437;28;20502;-68
2023/05/17 12:06:16;;;;;;;4.28;2.35;;;25.90;52.50;;;;;;5072443;28;20124;-68
2023/05/17 12:08:45;;;;;;;2.70;2.50;;;25.90;51.90;;;;;;5072595;28;20124;-70
2023/05/17 12:11:14;;;;;;;4.20;2.60;;;26.00;52.60;;;;;;5087753;28;20094;-66
2023/05/17 12:13:45;;;;;;;1.83;1.70;;;26.10;52.60;;;;;;5072242;28;20678;-69
2023/05/17 12:16:13;;;;;;;3.35;1.90;;;25.90;51.70;;;;;;5072230;28;20037;-67
2023/05/17 12:18:41;;;;;;;2.50;2.28;;;25.90;52.30;;;;;;5072269;28;20040;-66
2023/05/17 12:21:09;;;;;;;3.00;2.45;;;26.00;53.10;;;;;;5071879;28;20136;-67
2023/05/17 12:23:38;;;;;;;3.50;2.97;;;25.90;52.90;;;;;;5072094;28;20032;-68
2023/05/17 12:26:18;;;;;;;4.13;2.92;;;26.00;52.70;;;;;;5072054;28;20035;-65
2023/05/17 12:28:56;;;;;;;3.88;2.58;;;25.80;52.50;;;;;;5072080;28;20075;-65
2023/05/17 12:31:47;;;;;;;4.65;2.35;;;25.90;52.20;;;;;;5087137;28;20044;-66
2023/05/17 12:34:15;;;;;;;6.53;2.70;;;25.80;52.40;;;;;;5072982;28;20037;-66
2023/05/17 12:36:42;;;;;;;4.82;2.95;;;25.80;52.90;;;;;;5071669;28;20040;-66
2023/05/17 12:39:13;;;;;;;5.93;2.80;;;25.80;52.80;;;;;;5070961;28;20032;-65
2023/05/17 12:41:40;;;;;;;6.28;3.25;;;25.80;53.00;;;;;;5071495;28;20036;-66
2023/05/17 12:44:07;;;;;;;3.80;2.90;;;25.70;53.10;;;;;;5071863;28;20118;-66
2023/05/17 12:46:33;;;;;;;5.07;3.03;;;25.80;53.30;;;;;;5079597;28;20040;-66
2023/05/17 12:49:07;;;;;;;5.95;3.05;;;25.80;52.40;;;;;;5071709;28;20067;-66
2023/05/17 12:51:44;;;;;;;5.40;2.67;;;25.90;52.40;;;;;;5071641;28;20048;-66